createdAt,value
2023-03-16T00:00:41.543Z,100684.50
2023-03-16T00:03:08.818Z,100696.41
2023-03-16T00:05:36.152Z,100693.22
2023-03-16T00:08:02.532Z,100696.41
2023-03-16T00:13:14.658Z,100701.19
2023-03-16T00:15:41.056Z,100696.44
2023-03-16T00:18:07.468Z,100707.94
2023-03-16T00:20:33.848Z,100703.19
2023-03-16T00:23:00.522Z,100712.31
2023-03-16T00:28:10.817Z,100715.47
2023-03-16T00:30:37.203Z,100720.63
2023-03-16T00:33:04.483Z,100722.25
2023-03-16T00:35:30.847Z,100725.00
2023-03-16T00:37:57.276Z,100722.25
2023-03-16T00:43:07.291Z,100727.81
2023-03-16T00:45:33.652Z,100725.81
2023-03-16T00:48:02.845Z,100725.41
2023-03-16T00:50:29.683Z,100725.41
2023-03-16T00:52:57.108Z,100727.41
2023-03-16T00:58:08.229Z,100732.56
2023-03-16T01:00:34.572Z,100730.97
2023-03-16T01:03:01.053Z,100732.53
2023-03-16T01:05:28.288Z,100728.59
2023-03-16T01:07:55.521Z,100732.53
2023-03-16T01:13:15.832Z,100723.81
2023-03-16T01:15:42.186Z,100732.16
2023-03-16T01:18:09.463Z,100733.75
2023-03-16T01:20:35.810Z,100737.31
2023-03-16T01:23:03.067Z,100732.97
2023-03-16T01:28:25.122Z,100741.31
2023-03-16T01:30:52.449Z,100734.53
2023-03-16T01:33:18.819Z,100737.31
2023-03-16T01:35:45.233Z,100742.47
2023-03-16T01:38:11.606Z,100746.47
2023-03-16T01:43:23.939Z,100754.41
2023-03-16T01:45:50.304Z,100752.44
2023-03-16T01:48:16.707Z,100750.81
2023-03-16T01:50:43.082Z,100752.00
2023-03-16T01:53:09.520Z,100750.81
2023-03-16T01:58:33.290Z,100764.72
2023-03-16T02:00:59.671Z,100756.78
2023-03-16T02:03:26.074Z,100754.41
2023-03-16T02:05:52.423Z,100750.44
2023-03-16T02:08:18.836Z,100763.50
2023-03-16T02:13:40.293Z,100754.00
2023-03-16T02:16:06.847Z,100754.00
2023-03-16T02:18:33.252Z,100754.78
2023-03-16T02:20:59.597Z,100755.97
2023-03-16T02:23:25.995Z,100763.13
2023-03-16T02:28:37.858Z,100761.56
2023-03-16T02:31:04.298Z,100767.50
2023-03-16T02:33:31.640Z,100764.34
2023-03-16T02:35:58.891Z,100768.69
2023-03-16T02:38:25.316Z,100769.50
2023-03-16T02:40:51.737Z,100773.06
2023-03-16T02:43:18.087Z,100776.22
2023-03-16T02:45:44.448Z,100782.19
2023-03-16T02:48:10.785Z,100783.78
2023-03-16T02:50:38.005Z,100780.63
2023-03-16T02:53:04.357Z,100784.19
2023-03-16T02:55:30.670Z,100789.75
2023-03-16T02:57:57.012Z,100794.91
2023-03-16T03:00:23.355Z,100785.34
2023-03-16T03:02:49.717Z,100792.91
2023-03-16T03:05:16.072Z,100795.69
2023-03-16T03:07:42.443Z,100799.66
2023-03-16T03:10:08.812Z,100803.63
2023-03-16T03:12:35.198Z,100803.63
2023-03-16T03:15:01.564Z,100809.97
2023-03-16T03:17:27.951Z,100806.00
2023-03-16T03:19:54.320Z,100809.59
2023-03-16T03:22:20.658Z,100814.34
2023-03-16T03:24:47.046Z,100814.34
2023-03-16T03:27:13.362Z,100819.09
2023-03-16T03:29:39.781Z,100822.69
2023-03-16T03:32:06.127Z,100831.03
2023-03-16T03:34:33.358Z,100835.38
2023-03-16T03:36:59.709Z,100833.00
2023-03-16T03:39:26.054Z,100830.22
2023-03-16T03:41:52.461Z,100834.59
2023-03-16T03:44:18.806Z,100840.94
2023-03-16T03:46:45.451Z,100848.50
2023-03-16T03:49:11.862Z,100833.81
2023-03-16T03:51:38.218Z,100844.94
2023-03-16T03:54:04.591Z,100839.75
2023-03-16T03:56:30.936Z,100840.56
2023-03-16T04:01:51.127Z,100848.09
2023-03-16T04:04:18.391Z,100852.88
2023-03-16T04:06:44.741Z,100856.47
2023-03-16T04:09:11.973Z,100846.88
2023-03-16T04:11:38.310Z,100852.81
2023-03-16T04:16:59.835Z,100859.63
2023-03-16T04:19:26.277Z,100862.75
2023-03-16T04:21:52.646Z,100860.00
2023-03-16T04:24:19.034Z,100862.78
2023-03-16T04:26:45.376Z,100861.25
2023-03-16T04:32:07.347Z,100862.41
2023-03-16T04:34:34.571Z,100867.97
2023-03-16T04:37:00.934Z,100869.97
2023-03-16T04:39:27.289Z,100865.97
2023-03-16T04:41:53.652Z,100863.56
2023-03-16T04:47:03.737Z,100869.53
2023-03-16T04:49:30.134Z,100872.72
2023-03-16T04:51:56.481Z,100875.88
2023-03-16T04:54:22.807Z,100880.69
2023-03-16T04:56:49.175Z,100884.22
2023-03-16T05:01:59.995Z,100891.72
2023-03-16T05:04:26.369Z,100894.09
2023-03-16T05:06:53.597Z,100896.13
2023-03-16T05:09:19.967Z,100897.34
2023-03-16T05:11:47.258Z,100902.09
2023-03-16T05:16:57.713Z,100907.66
2023-03-16T05:19:24.050Z,100904.88
2023-03-16T05:21:50.411Z,100909.28
2023-03-16T05:24:16.770Z,100913.22
2023-03-16T05:26:43.997Z,100909.31
2023-03-16T05:32:04.307Z,100910.91
2023-03-16T05:34:30.641Z,100916.44
2023-03-16T05:36:56.983Z,100918.44
2023-03-16T05:39:23.366Z,100916.09
2023-03-16T05:41:49.704Z,100917.66
2023-03-16T05:47:14.412Z,100921.59
2023-03-16T05:49:40.805Z,100925.19
2023-03-16T05:52:08.207Z,100924.00
2023-03-16T05:54:34.704Z,100927.97
2023-03-16T05:57:02.072Z,100922.41
2023-03-16T06:02:14.367Z,100935.94
2023-03-16T06:04:40.880Z,100931.94
2023-03-16T06:07:07.432Z,100940.69
2023-03-16T06:09:33.849Z,100930.38
2023-03-16T06:12:01.121Z,100942.28
2023-03-16T06:17:21.608Z,100939.50
2023-03-16T06:19:48.040Z,100941.88
2023-03-16T06:22:14.544Z,100940.28
2023-03-16T06:24:41.825Z,100938.72
2023-03-16T06:27:09.172Z,100935.94
2023-03-16T06:32:29.508Z,100943.91
2023-03-16T06:34:56.979Z,100945.84
2023-03-16T06:37:26.156Z,100945.84
2023-03-16T06:39:52.630Z,100947.09
2023-03-16T06:42:19.110Z,100945.88
2023-03-16T06:47:30.771Z,100948.25
2023-03-16T06:49:58.262Z,100951.41
2023-03-16T06:52:25.135Z,100955.81
2023-03-16T06:54:52.482Z,100958.59
2023-03-16T06:57:20.793Z,100958.97
2023-03-16T07:02:42.050Z,100962.16
2023-03-16T07:05:10.642Z,100962.56
2023-03-16T07:07:37.205Z,100975.69
2023-03-16T07:10:05.604Z,100978.09
2023-03-16T07:12:33.259Z,100971.72
2023-03-16T07:17:45.029Z,100988.81
2023-03-16T07:20:12.484Z,100982.81
2023-03-16T07:22:39.963Z,100976.44
2023-03-16T07:25:07.461Z,100978.41
2023-03-16T07:27:35.005Z,100978.41
2023-03-16T07:30:01.626Z,100974.00
2023-03-16T07:32:31.076Z,100971.59
2023-03-16T07:34:59.189Z,100974.00
2023-03-16T07:37:25.985Z,100991.09
2023-03-16T07:39:53.917Z,100987.50
2023-03-16T07:42:20.700Z,100982.34
2023-03-16T07:44:49.078Z,100989.13
2023-03-16T07:47:24.503Z,100981.59
2023-03-16T07:49:52.584Z,100991.22
2023-03-16T07:52:20.087Z,100985.28
2023-03-16T07:54:47.771Z,100990.50
2023-03-16T07:57:14.329Z,101000.50
2023-03-16T07:59:40.927Z,100995.75
2023-03-16T08:02:10.347Z,100991.84
2023-03-16T08:04:37.186Z,100990.31
2023-03-16T08:07:04.799Z,100975.75
2023-03-16T08:09:31.481Z,100986.69
2023-03-16T08:11:58.966Z,100981.81
2023-03-16T08:14:25.655Z,100977.78
2023-03-16T08:16:53.281Z,100986.38
2023-03-16T08:19:20.612Z,100991.91
2023-03-16T08:22:00.613Z,100993.81
2023-03-16T08:24:29.840Z,101008.50
2023-03-16T08:26:58.854Z,101000.56
2023-03-16T08:29:25.576Z,100998.59
2023-03-16T08:31:52.208Z,100992.22
2023-03-16T08:34:19.778Z,101002.19
2023-03-16T08:36:46.573Z,100999.47
2023-03-16T08:39:14.301Z,101003.03
2023-03-16T08:41:41.019Z,101011.00
2023-03-16T08:44:07.987Z,101003.44
2023-03-16T08:46:34.646Z,101010.22
2023-03-16T08:49:02.220Z,101019.38
2023-03-16T08:51:28.905Z,101010.63
2023-03-16T08:53:55.534Z,101021.75
2023-03-16T08:56:22.394Z,101028.56
2023-03-16T08:58:50.544Z,101018.19
2023-03-16T09:01:19.092Z,101014.06
2023-03-16T09:06:39.861Z,101026.03
2023-03-16T09:09:06.474Z,101023.53
2023-03-16T09:11:33.882Z,101016.28
2023-03-16T09:14:00.670Z,101023.88
2023-03-16T09:16:27.527Z,101017.56
2023-03-16T09:21:50.021Z,101022.06
2023-03-16T09:24:16.767Z,101035.59
2023-03-16T09:26:43.470Z,101027.94
2023-03-16T09:29:11.946Z,101020.88
2023-03-16T09:31:38.760Z,101022.94
2023-03-16T09:36:53.381Z,101022.31
2023-03-16T09:39:19.888Z,101030.50
2023-03-16T09:41:47.402Z,101026.25
2023-03-16T09:44:18.939Z,101020.16
2023-03-16T09:46:45.574Z,101020.56
2023-03-16T09:52:06.274Z,101012.84
2023-03-16T09:54:35.634Z,101033.97
2023-03-16T09:57:02.146Z,101034.00
2023-03-16T09:59:28.760Z,101037.97
2023-03-16T10:01:58.118Z,101030.03
2023-03-16T10:07:19.575Z,101048.00
2023-03-16T10:09:46.284Z,101042.84
2023-03-16T10:12:12.769Z,101032.47
2023-03-16T10:14:39.149Z,101032.88
2023-03-16T10:17:05.618Z,101038.84
2023-03-16T10:22:16.888Z,101048.44
2023-03-16T10:24:43.291Z,101049.63
2023-03-16T10:27:10.579Z,101052.00
2023-03-16T10:29:36.934Z,101046.03
2023-03-16T10:32:03.331Z,101051.63
2023-03-16T10:37:13.438Z,101048.78
2023-03-16T10:39:39.812Z,101045.59
2023-03-16T10:42:06.290Z,101053.94
2023-03-16T10:44:33.611Z,101055.13
2023-03-16T10:47:00.078Z,101055.88
2023-03-16T10:52:11.237Z,101045.97
2023-03-16T10:54:37.658Z,101049.16
2023-03-16T10:57:04.262Z,101054.72
2023-03-16T10:59:30.662Z,101048.31
2023-03-16T11:01:57.208Z,101050.63
2023-03-16T11:07:17.561Z,101049.38
2023-03-16T11:09:44.077Z,101047.78
2023-03-16T11:12:13.346Z,101051.75
2023-03-16T11:14:40.602Z,101041.00
2023-03-16T11:17:07.965Z,101042.19
2023-03-16T11:22:31.224Z,101047.69
2023-03-16T11:24:59.611Z,101033.34
2023-03-16T11:27:28.833Z,101044.09
2023-03-16T11:29:55.262Z,101039.66
2023-03-16T11:32:22.599Z,101041.25
2023-03-16T11:37:44.947Z,101048.78
2023-03-16T11:40:11.592Z,101049.22
2023-03-16T11:42:38.924Z,101055.13
2023-03-16T11:45:05.486Z,101051.16
2023-03-16T11:47:32.061Z,101051.91
2023-03-16T11:52:43.053Z,101044.34
2023-03-16T11:55:11.426Z,101055.47
2023-03-16T11:57:38.855Z,101051.06
2023-03-16T12:00:06.114Z,101054.63
2023-03-16T12:02:32.652Z,101056.28
2023-03-16T12:07:46.090Z,101065.34
2023-03-16T12:10:14.407Z,101063.34
2023-03-16T12:12:40.847Z,101058.59
2023-03-16T12:15:07.277Z,101062.22
2023-03-16T12:17:33.688Z,101058.63
2023-03-16T12:22:53.909Z,101067.72
2023-03-16T12:25:20.318Z,101057.69
2023-03-16T12:27:46.712Z,101058.00
2023-03-16T12:30:13.202Z,101065.16
2023-03-16T12:32:40.498Z,101058.38
2023-03-16T12:37:50.480Z,101064.00
2023-03-16T12:40:16.885Z,101062.31
2023-03-16T12:42:43.312Z,101060.66
2023-03-16T12:45:12.470Z,101057.06
2023-03-16T12:47:39.700Z,101059.81
2023-03-16T12:50:06.133Z,101065.69
2023-03-16T12:52:32.489Z,101070.34
2023-03-16T12:54:59.732Z,101069.56
2023-03-16T12:57:28.874Z,101069.19
2023-03-16T12:59:56.132Z,101072.31
2023-03-16T13:02:22.476Z,101070.28
2023-03-16T13:04:51.747Z,101073.44
2023-03-16T13:07:19.212Z,101078.56
2023-03-16T13:09:45.575Z,101075.41
2023-03-16T13:12:13.808Z,101076.09
2023-03-16T13:14:41.120Z,101078.44
2023-03-16T13:17:07.494Z,101070.09
2023-03-16T13:19:33.830Z,101079.66
2023-03-16T13:22:01.059Z,101073.66
2023-03-16T13:24:27.497Z,101076.03
2023-03-16T13:26:53.938Z,101073.66
2023-03-16T13:29:21.206Z,101074.44
2023-03-16T13:31:47.608Z,101077.63
2023-03-16T13:34:14.043Z,101074.03
2023-03-16T13:36:41.347Z,101074.81
2023-03-16T13:39:08.712Z,101072.34
2023-03-16T13:41:35.120Z,101076.34
2023-03-16T13:44:02.376Z,101068.84
2023-03-16T13:46:28.804Z,101075.19
2023-03-16T13:48:55.198Z,101078.69
2023-03-16T13:51:22.455Z,101077.94
2023-03-16T13:53:48.836Z,101076.25
2023-03-16T13:56:16.057Z,101080.25
2023-03-16T13:58:42.420Z,101081.47
2023-03-16T14:01:08.795Z,101073.47
2023-03-16T14:03:35.218Z,101074.22
2023-03-16T14:06:01.553Z,101078.97
2023-03-16T14:11:12.571Z,101083.38
2023-03-16T14:13:38.945Z,101078.16
2023-03-16T14:16:06.279Z,101086.56
2023-03-16T14:18:32.700Z,101083.31
2023-03-16T14:20:59.073Z,101086.84
2023-03-16T14:26:09.342Z,101083.69
2023-03-16T14:28:35.703Z,101080.09
2023-03-16T14:31:02.166Z,101085.22
2023-03-16T14:33:28.593Z,101084.41
2023-03-16T14:35:55.092Z,101091.56
2023-03-16T14:41:05.646Z,101082.78
2023-03-16T14:43:31.995Z,101091.53
2023-03-16T14:45:58.395Z,101092.31
2023-03-16T14:48:25.652Z,101081.19
2023-03-16T14:50:52.082Z,101084.78
2023-03-16T14:56:15.231Z,101088.28
2023-03-16T14:58:41.640Z,101087.44
2023-03-16T15:01:07.988Z,101090.63
2023-03-16T15:03:34.352Z,101094.25
2023-03-16T15:06:00.764Z,101105.72
2023-03-16T15:11:11.223Z,101106.00
2023-03-16T15:13:37.566Z,101101.63
2023-03-16T15:16:03.987Z,101114.75
2023-03-16T15:18:30.341Z,101112.72
2023-03-16T15:20:56.705Z,101120.34
2023-03-16T15:26:36.791Z,101110.16
2023-03-16T15:29:04.222Z,101108.94
2023-03-16T15:31:30.953Z,101109.34
2023-03-16T15:33:57.421Z,101112.19
2023-03-16T15:36:23.808Z,101111.75
2023-03-16T15:41:47.820Z,101108.16
2023-03-16T15:44:14.548Z,101112.22
2023-03-16T15:46:40.920Z,101105.88
2023-03-16T15:49:07.467Z,101119.38
2023-03-16T15:51:33.818Z,101122.81
2023-03-16T15:56:53.709Z,101133.06
2023-03-16T15:59:21.056Z,101135.06
2023-03-16T16:01:47.651Z,101129.94
2023-03-16T16:04:14.935Z,101137.47
2023-03-16T16:06:41.321Z,101141.03
2023-03-16T16:12:02.424Z,101139.75
2023-03-16T16:14:28.766Z,101140.88
2023-03-16T16:16:55.147Z,101151.59
2023-03-16T16:19:21.608Z,101151.97
2023-03-16T16:21:48.008Z,101153.94
2023-03-16T16:27:09.347Z,101159.81
2023-03-16T16:29:35.730Z,101165.72
2023-03-16T16:32:02.992Z,101162.53
2023-03-16T16:34:30.305Z,101167.72
2023-03-16T16:36:56.714Z,101174.78
2023-03-16T16:42:07.111Z,101170.03
2023-03-16T16:44:36.292Z,101172.38
2023-03-16T16:47:03.978Z,101180.31
2023-03-16T16:49:30.368Z,101176.75
2023-03-16T16:51:56.756Z,101180.31
2023-03-16T16:57:06.975Z,101184.75
2023-03-16T16:59:33.381Z,101183.41
2023-03-16T17:01:59.764Z,101183.69
2023-03-16T17:04:26.183Z,101186.22
2023-03-16T17:06:52.752Z,101181.56
2023-03-16T17:12:04.894Z,101189.53
2023-03-16T17:14:34.432Z,101191.88
2023-03-16T17:17:03.743Z,101195.78
2023-03-16T17:19:30.694Z,101191.09
2023-03-16T17:21:57.491Z,101202.25
2023-03-16T17:27:17.920Z,101201.47
2023-03-16T17:29:44.340Z,101200.25
2023-03-16T17:32:11.662Z,101208.63
2023-03-16T17:34:38.904Z,101206.25
2023-03-16T17:37:06.146Z,101208.25
2023-03-16T17:42:26.650Z,101214.28
2023-03-16T17:44:53.138Z,101219.50
2023-03-16T17:47:19.617Z,101220.25
2023-03-16T17:49:47.358Z,101226.69
2023-03-16T17:52:14.607Z,101222.28
2023-03-16T17:57:25.062Z,101226.69
2023-03-16T17:59:52.344Z,101223.97
2023-03-16T18:02:18.737Z,101216.72
2023-03-16T18:04:45.220Z,101221.88
2023-03-16T18:07:14.401Z,101228.94
2023-03-16T18:09:40.806Z,101232.50
2023-03-16T18:12:08.116Z,101234.13
2023-03-16T18:14:37.474Z,101234.47
2023-03-16T18:17:04.057Z,101230.50
2023-03-16T18:19:30.415Z,101241.63
2023-03-16T18:21:56.798Z,101238.47
2023-03-16T18:24:23.167Z,101238.88
2023-03-16T18:26:49.490Z,101250.75
2023-03-16T18:29:15.875Z,101245.59
2023-03-16T18:31:42.272Z,101246.81
2023-03-16T18:34:08.653Z,101253.16
2023-03-16T18:36:34.981Z,101253.94
2023-03-16T18:39:01.310Z,101253.16
2023-03-16T18:41:27.662Z,101253.94
2023-03-16T18:43:54.641Z,101255.16
2023-03-16T18:46:21.017Z,101262.28
2023-03-16T18:48:47.372Z,101257.97
2023-03-16T18:51:13.754Z,101259.09
2023-03-16T18:53:40.113Z,101261.53
2023-03-16T18:56:06.455Z,101262.69
2023-03-16T18:58:32.779Z,101269.44
2023-03-16T19:00:59.312Z,101274.19
2023-03-16T19:03:25.750Z,101267.34
2023-03-16T19:05:53.006Z,101272.09
2023-03-16T19:08:19.410Z,101268.13
2023-03-16T19:10:46.621Z,101271.78
2023-03-16T19:16:07.388Z,101268.94
2023-03-16T19:18:33.771Z,101272.91
2023-03-16T19:21:00.123Z,101275.31
2023-03-16T19:23:26.613Z,101282.47
2023-03-16T19:25:53.011Z,101286.03
2023-03-16T19:31:13.470Z,101295.91
2023-03-16T19:33:40.906Z,101298.69
2023-03-16T19:36:07.296Z,101295.16
2023-03-16T19:38:34.555Z,101304.69
2023-03-16T19:41:00.914Z,101299.13
2023-03-16T19:46:14.275Z,101309.44
2023-03-16T19:48:40.724Z,101311.84
2023-03-16T19:51:09.865Z,101307.84
2023-03-16T19:53:36.231Z,101302.28
2023-03-16T19:56:02.625Z,101307.06
2023-03-16T20:01:13.231Z,101312.25
2023-03-16T20:03:39.702Z,101304.75
2023-03-16T20:06:06.261Z,101309.06
2023-03-16T20:08:32.702Z,101309.47
2023-03-16T20:10:59.974Z,101317.44
2023-03-16T20:16:22.271Z,101313.88
2023-03-16T20:18:48.941Z,101313.06
2023-03-16T20:21:16.201Z,101311.88
2023-03-16T20:23:42.626Z,101317.06
2023-03-16T20:26:09.809Z,101313.91
2023-03-16T20:31:20.269Z,101318.66
2023-03-16T20:33:46.591Z,101320.63
2023-03-16T20:36:13.024Z,101308.72
2023-03-16T20:38:39.432Z,101313.91
2023-03-16T20:41:05.799Z,101317.91
2023-03-16T20:46:17.374Z,101311.09
2023-03-16T20:48:43.904Z,101313.19
2023-03-16T20:51:10.388Z,101319.97
2023-03-16T20:53:37.665Z,101323.19
2023-03-16T20:56:07.623Z,101314.81
2023-03-16T21:01:29.748Z,101321.91
2023-03-16T21:03:56.422Z,101324.28
2023-03-16T21:06:22.876Z,101323.50
2023-03-16T21:08:50.157Z,101322.31
2023-03-16T21:11:17.424Z,101325.16
2023-03-16T21:16:31.106Z,101331.50
2023-03-16T21:18:57.578Z,101327.47
2023-03-16T21:21:23.921Z,101326.31
2023-03-16T21:23:50.357Z,101321.91
2023-03-16T21:26:16.862Z,101324.75
2023-03-16T21:31:39.484Z,101325.56
2023-03-16T21:34:06.898Z,101333.03
2023-03-16T21:36:33.367Z,101327.94
2023-03-16T21:39:00.700Z,101323.56
2023-03-16T21:41:27.170Z,101329.13
2023-03-16T21:46:37.507Z,101329.53
2023-03-16T21:49:04.993Z,101332.75
2023-03-16T21:51:31.514Z,101330.00
2023-03-16T21:53:58.036Z,101339.22
2023-03-16T21:56:24.545Z,101333.63
2023-03-16T22:01:44.884Z,101330.75
2023-03-16T22:04:17.320Z,101325.97
2023-03-16T22:06:45.774Z,101326.75
2023-03-16T22:09:12.252Z,101323.59
2023-03-16T22:11:38.771Z,101332.06
2023-03-16T22:16:58.977Z,101342.44
2023-03-16T22:19:28.154Z,101342.03
2023-03-16T22:21:55.445Z,101343.22
2023-03-16T22:24:21.906Z,101341.19
2023-03-16T22:26:48.309Z,101339.03
2023-03-16T22:32:10.144Z,101337.47
2023-03-16T22:34:37.535Z,101332.38
2023-03-16T22:37:03.876Z,101332.28
2023-03-16T22:39:30.251Z,101331.94
2023-03-16T22:41:56.645Z,101336.31
2023-03-16T22:47:17.124Z,101340.00
2023-03-16T22:49:43.599Z,101334.75
2023-03-16T22:52:10.988Z,101339.25
2023-03-16T22:54:37.472Z,101342.72
2023-03-16T22:57:03.975Z,101341.88
2023-03-16T23:02:26.420Z,101348.16
2023-03-16T23:04:53.824Z,101353.66
2023-03-16T23:07:21.215Z,101348.06
2023-03-16T23:09:47.668Z,101351.59
2023-03-16T23:12:14.100Z,101352.81
2023-03-16T23:14:42.402Z,101354.78
2023-03-16T23:17:09.955Z,101354.75
2023-03-16T23:19:36.453Z,101352.00
2023-03-16T23:22:02.880Z,101359.56
2023-03-16T23:24:29.301Z,101360.34
2023-03-16T23:26:55.731Z,101351.19
2023-03-16T23:29:22.986Z,101357.53
2023-03-16T23:31:51.346Z,101353.59
2023-03-16T23:34:17.788Z,101359.97
2023-03-16T23:36:45.123Z,101361.09
2023-03-16T23:39:12.392Z,101363.09
2023-03-16T23:41:40.692Z,101369.06
2023-03-16T23:44:07.978Z,101371.44
2023-03-16T23:46:35.230Z,101370.22
2023-03-16T23:49:01.698Z,101377.75
2023-03-16T23:51:30.036Z,101373.72
2023-03-16T23:53:57.305Z,101374.53
2023-03-16T23:56:24.598Z,101377.25
2023-03-16T23:58:51.035Z,101378.94
